Time;durP1;ratioP1;P1;durP2;ratioP2;P2;SDS_P1;SDS_P2;PMS_P1;PMS_P2;Temp;Humidity;BMP_temperature;BMP_pressure;BME280_temperature;BME280_humidity;BME280_pressure;Samples;Min_cycle;Max_cycle;Signal;HPM_P1;HPM_P2
2020/12/05 00:02:16;;;;;;;28.08;18.73;;;;;;;;;;5123261;27;20033;-64
2020/12/05 00:04:42;;;;;;;28.40;18.50;;;;;;;;;;5119925;27;20076;-64
2020/12/05 00:07:07;;;;;;;24.67;18.58;;;;;;;;;;5125992;27;20027;-64
2020/12/05 00:09:32;;;;;;;28.88;19.50;;;;;;;;;;5122369;27;20031;-64
2020/12/05 00:12:02;;;;;;;26.33;18.70;;;;;;;;;;5121811;27;20411;-64
2020/12/05 00:14:27;;;;;;;29.75;19.10;;;;;;;;;;5121289;27;20036;-64
2020/12/05 00:16:52;;;;;;;27.63;19.48;;;;;;;;;;5120776;27;20112;-64
2020/12/05 00:19:19;;;;;;;27.02;19.52;;;;;;;;;;5107612;27;20050;-64
2020/12/05 00:21:44;;;;;;;23.15;19.27;;;;;;;;;;5120702;27;20146;-64
2020/12/05 00:24:09;;;;;;;28.13;19.00;;;;;;;;;;5125032;27;20533;-64
2020/12/05 00:26:35;;;;;;;27.65;19.83;;;;;;;;;;5121173;27;20055;-64
2020/12/05 00:29:00;;;;;;;29.02;19.55;;;;;;;;;;5121840;27;20046;-64
2020/12/05 00:31:25;;;;;;;26.30;19.67;;;;;;;;;;5120929;27;20118;-63
2020/12/05 00:33:51;;;;;;;28.85;20.52;;;;;;;;;;5121251;27;20092;-63
2020/12/05 00:36:17;;;;;;;33.17;20.52;;;;;;;;;;5121355;27;20031;-64
2020/12/05 00:38:43;;;;;;;28.63;19.77;;;;;;;;;;5121493;27;20058;-64
2020/12/05 00:41:10;;;;;;;27.85;19.02;;;;;;;;;;5123648;27;20035;-63
2020/12/05 00:43:36;;;;;;;27.27;18.75;;;;;;;;;;5122575;27;20027;-63
2020/12/05 00:46:04;;;;;;;24.77;19.58;;;;;;;;;;5122779;27;20034;-63
2020/12/05 00:48:30;;;;;;;25.90;18.48;;;;;;;;;;5122372;27;20036;-63
2020/12/05 00:50:56;;;;;;;27.13;19.60;;;;;;;;;;5100717;27;20046;-64
2020/12/05 00:53:21;;;;;;;28.05;19.85;;;;;;;;;;5123227;27;20473;-63
2020/12/05 00:55:47;;;;;;;26.15;19.50;;;;;;;;;;5120997;27;20046;-63
2020/12/05 00:58:12;;;;;;;22.50;17.90;;;;;;;;;;5119602;27;20034;-63
2020/12/05 01:00:40;;;;;;;26.05;19.40;;;;;;;;;;5118881;27;20051;-63
2020/12/05 01:03:06;;;;;;;30.85;20.20;;;;;;;;;;5122070;27;20042;-63
2020/12/05 01:05:32;;;;;;;28.70;19.88;;;;;;;;;;5119233;27;20047;-63
2020/12/05 01:08:00;;;;;;;30.15;20.23;;;;;;;;;;5124058;27;20035;-63
2020/12/05 01:10:25;;;;;;;22.95;18.35;;;;;;;;;;5118838;27;20023;-63
2020/12/05 01:12:51;;;;;;;25.10;19.52;;;;;;;;;;5122242;27;20160;-63
2020/12/05 01:15:16;;;;;;;28.02;19.27;;;;;;;;;;5117905;27;20042;-63
2020/12/05 01:17:41;;;;;;;25.17;19.27;;;;;;;;;;5120865;27;20051;-63
2020/12/05 01:20:07;;;;;;;26.50;18.83;;;;;;;;;;5122919;27;20457;-63
2020/12/05 01:22:33;;;;;;;25.85;19.65;;;;;;;;;;5120791;27;20515;-63
2020/12/05 01:24:58;;;;;;;40.65;18.85;;;;;;;;;;5122278;27;20346;-63
2020/12/05 01:27:24;;;;;;;26.98;18.83;;;;;;;;;;5119903;27;20026;-63
2020/12/05 01:29:49;;;;;;;27.13;20.23;;;;;;;;;;5120356;27;20040;-63
2020/12/05 01:32:15;;;;;;;26.48;19.42;;;;;;;;;;5099590;27;20460;-63
2020/12/05 01:34:40;;;;;;;34.65;19.67;;;;;;;;;;5099706;28;20034;-63
2020/12/05 01:37:06;;;;;;;29.33;19.50;;;;;;;;;;5123780;27;20099;-63
2020/12/05 01:39:31;;;;;;;30.38;20.52;;;;;;;;;;5118819;27;20506;-63
2020/12/05 01:41:57;;;;;;;28.60;19.08;;;;;;;;;;5123176;27;20119;-63
2020/12/05 01:44:22;;;;;;;32.75;21.45;;;;;;;;;;5119216;27;20083;-63
2020/12/05 01:46:49;;;;;;;27.55;20.27;;;;;;;;;;5119598;27;20051;-63
2020/12/05 01:49:18;;;;;;;30.25;20.02;;;;;;;;;;5119626;27;20036;-62
2020/12/05 01:51:45;;;;;;;27.35;19.60;;;;;;;;;;5118667;27;20131;-63
2020/12/05 01:54:10;;;;;;;34.50;20.00;;;;;;;;;;5122818;27;20050;-63
2020/12/05 01:56:36;;;;;;;29.60;20.02;;;;;;;;;;5119464;27;20028;-62
2020/12/05 01:59:02;;;;;;;27.50;19.83;;;;;;;;;;5120679;27;20122;-62
2020/12/05 02:01:28;;;;;;;31.50;19.67;;;;;;;;;;5117142;27;20046;-62
2020/12/05 02:03:58;;;;;;;25.17;19.60;;;;;;;;;;5118055;27;20035;-62
2020/12/05 02:06:47;;;;;;;29.88;21.00;;;;;;;;;;5119510;27;20059;-62
2020/12/05 02:09:18;;;;;;;32.58;20.58;;;;;;;;;;5120463;27;20458;-62
2020/12/05 02:11:55;;;;;;;27.63;19.95;;;;;;;;;;5117193;27;20036;-62
2020/12/05 02:14:24;;;;;;;32.05;20.85;;;;;;;;;;5119617;27;20124;-62
2020/12/05 02:16:52;;;;;;;29.75;19.75;;;;;;;;;;5116998;27;20035;-62
2020/12/05 02:19:21;;;;;;;32.20;21.15;;;;;;;;;;5120645;27;20057;-62
2020/12/05 02:21:50;;;;;;;28.13;20.35;;;;;;;;;;5110565;27;20043;-62
2020/12/05 02:24:16;;;;;;;32.35;21.73;;;;;;;;;;5121713;27;20031;-62
2020/12/05 02:26:43;;;;;;;27.67;19.75;;;;;;;;;;5119840;27;20541;-62
2020/12/05 02:29:10;;;;;;;25.70;19.55;;;;;;;;;;5117203;27;20035;-62
2020/12/05 02:31:36;;;;;;;29.75;20.40;;;;;;;;;;5117764;27;20070;-62
2020/12/05 02:34:01;;;;;;;27.75;19.83;;;;;;;;;;5118533;27;20055;-62
2020/12/05 02:36:29;;;;;;;28.90;21.13;;;;;;;;;;5118437;27;20043;-62
2020/12/05 02:39:08;;;;;;;30.88;20.48;;;;;;;;;;5119907;27;20071;-62
2020/12/05 02:41:38;;;;;;;25.02;19.48;;;;;;;;;;5118565;27;20039;-62
2020/12/05 02:44:04;;;;;;;28.55;19.67;;;;;;;;;;5121153;27;20130;-62
2020/12/05 02:46:30;;;;;;;27.35;19.63;;;;;;;;;;5117989;27;20217;-62
2020/12/05 02:48:55;;;;;;;25.80;19.48;;;;;;;;;;5121855;27;20540;-62
2020/12/05 02:51:21;;;;;;;29.08;21.00;;;;;;;;;;5116920;27;20399;-62
2020/12/05 02:53:46;;;;;;;26.38;20.35;;;;;;;;;;5119761;27;20042;-62
2020/12/05 02:56:16;;;;;;;29.27;20.23;;;;;;;;;;5119936;27;20027;-62
2020/12/05 02:58:42;;;;;;;26.88;20.02;;;;;;;;;;5119016;27;20040;-62
2020/12/05 03:01:08;;;;;;;30.23;21.70;;;;;;;;;;5119869;27;20035;-62
2020/12/05 03:03:33;;;;;;;27.83;19.35;;;;;;;;;;5119140;27;20032;-62
2020/12/05 03:05:58;;;;;;;26.88;19.98;;;;;;;;;;5117963;27;20043;-62
2020/12/05 03:08:23;;;;;;;34.42;21.70;;;;;;;;;;5105028;28;20031;-62
2020/12/05 03:10:49;;;;;;;38.63;23.35;;;;;;;;;;5120278;27;20092;-62
2020/12/05 03:13:14;;;;;;;32.88;20.58;;;;;;;;;;5118730;27;20024;-62
2020/12/05 03:15:39;;;;;;;28.27;20.23;;;;;;;;;;5118041;27;20473;-62
2020/12/05 03:18:05;;;;;;;28.70;19.45;;;;;;;;;;5121750;28;20031;-62
2020/12/05 03:20:30;;;;;;;31.95;20.13;;;;;;;;;;5105349;28;20059;-62
2020/12/05 03:22:55;;;;;;;28.08;20.92;;;;;;;;;;5121075;28;20062;-62
2020/12/05 03:25:20;;;;;;;27.60;20.70;;;;;;;;;;5096980;27;20067;-62
2020/12/05 03:27:46;;;;;;;29.42;19.90;;;;;;;;;;5120723;28;20069;-62
2020/12/05 03:30:11;;;;;;;27.23;20.30;;;;;;;;;;5118702;28;20042;-62
2020/12/05 03:32:37;;;;;;;34.47;22.77;;;;;;;;;;5115546;28;20044;-62
2020/12/05 03:35:02;;;;;;;32.60;20.75;;;;;;;;;;5120452;28;20091;-62
2020/12/05 03:37:28;;;;;;;30.40;20.60;;;;;;;;;;5119439;28;21049;-62
2020/12/05 03:39:54;;;;;;;30.13;20.50;;;;;;;;;;5117971;28;20112;-62
2020/12/05 03:42:19;;;;;;;30.75;21.55;;;;;;;;;;5119791;28;20651;-63
2020/12/05 03:44:45;;;;;;;28.98;21.35;;;;;;;;;;5117470;28;20032;-62
2020/12/05 03:47:10;;;;;;;28.50;20.40;;;;;;;;;;5121520;28;20055;-62
2020/12/05 03:49:36;;;;;;;35.17;21.45;;;;;;;;;;5115595;28;20039;-62
2020/12/05 03:52:03;;;;;;;32.92;21.35;;;;;;;;;;5119935;28;20138;-62
2020/12/05 03:54:28;;;;;;;30.63;21.40;;;;;;;;;;5117882;28;20417;-62
2020/12/05 03:56:54;;;;;;;31.90;22.33;;;;;;;;;;5120090;28;20130;-62
2020/12/05 03:59:19;;;;;;;41.30;26.52;;;;;;;;;;5118481;28;20036;-62
2020/12/05 04:01:44;;;;;;;30.50;22.02;;;;;;;;;;5117646;28;20126;-62
2020/12/05 04:04:10;;;;;;;31.92;23.45;;;;;;;;;;5120893;28;20046;-62
2020/12/05 04:06:36;;;;;;;34.00;22.42;;;;;;;;;;5115421;28;20035;-62
2020/12/05 04:09:01;;;;;;;29.48;20.65;;;;;;;;;;5120993;28;20031;-63
2020/12/05 04:11:26;;;;;;;29.33;20.83;;;;;;;;;;5116271;28;20505;-63
2020/12/05 04:13:52;;;;;;;33.00;21.80;;;;;;;;;;5119223;28;20341;-63
2020/12/05 04:16:17;;;;;;;32.20;21.65;;;;;;;;;;5117033;28;20054;-63
2020/12/05 04:18:42;;;;;;;28.98;21.05;;;;;;;;;;5118951;28;20128;-63
2020/12/05 04:21:08;;;;;;;27.02;19.38;;;;;;;;;;5120518;28;20041;-63
2020/12/05 04:23:33;;;;;;;34.55;23.08;;;;;;;;;;5115368;28;20023;-63
2020/12/05 04:25:58;;;;;;;32.20;21.88;;;;;;;;;;5121520;27;20507;-63
2020/12/05 04:28:24;;;;;;;31.20;21.35;;;;;;;;;;5120862;27;20080;-63
2020/12/05 04:30:49;;;;;;;28.20;20.95;;;;;;;;;;5122164;27;20027;-63
2020/12/05 04:33:14;;;;;;;29.17;20.10;;;;;;;;;;5121274;27;20039;-63
2020/12/05 04:35:41;;;;;;;29.00;20.60;;;;;;;;;;5120899;27;20483;-63
2020/12/05 04:38:06;;;;;;;34.13;20.67;;;;;;;;;;5121126;27;20042;-63
2020/12/05 04:40:32;;;;;;;32.53;21.73;;;;;;;;;;5120578;27;20031;-63
2020/12/05 04:43:01;;;;;;;28.92;21.52;;;;;;;;;;5122648;27;20042;-62
2020/12/05 04:45:27;;;;;;;30.13;22.33;;;;;;;;;;5120727;27;20388;-63
2020/12/05 04:47:55;;;;;;;30.95;21.00;;;;;;;;;;5121245;27;20763;-63
2020/12/05 04:50:22;;;;;;;30.63;20.98;;;;;;;;;;5120102;27;20059;-63
2020/12/05 04:52:49;;;;;;;33.30;21.55;;;;;;;;;;5123402;27;20456;-63
2020/12/05 04:55:15;;;;;;;29.80;20.67;;;;;;;;;;5122411;27;20085;-63
2020/12/05 04:57:46;;;;;;;29.45;21.40;;;;;;;;;;5120051;27;20043;-63
2020/12/05 05:00:13;;;;;;;30.25;21.80;;;;;;;;;;5121266;27;20038;-63
2020/12/05 05:02:43;;;;;;;34.80;22.60;;;;;;;;;;5121436;27;20035;-63
2020/12/05 05:05:11;;;;;;;32.40;22.08;;;;;;;;;;5117052;27;20115;-63
2020/12/05 05:07:54;;;;;;;31.85;21.40;;;;;;;;;;5121071;27;20035;-62
2020/12/05 05:10:23;;;;;;;34.33;22.48;;;;;;;;;;5118367;27;20027;-62
2020/12/05 05:12:50;;;;;;;32.28;21.27;;;;;;;;;;5122805;27;20058;-63
2020/12/05 05:15:28;;;;;;;29.50;21.55;;;;;;;;;;5119331;27;20515;-63
2020/12/05 05:18:02;;;;;;;29.77;20.92;;;;;;;;;;5122018;27;20047;-63
2020/12/05 05:20:29;;;;;;;29.77;20.67;;;;;;;;;;5120568;27;20032;-63
2020/12/05 05:23:15;;;;;;;29.30;20.80;;;;;;;;;;5107350;27;20601;-62
2020/12/05 05:25:59;;;;;;;30.17;21.73;;;;;;;;;;5119583;27;20104;-62
2020/12/05 05:28:30;;;;;;;36.40;22.45;;;;;;;;;;5122285;27;20213;-62
2020/12/05 05:31:23;;;;;;;32.63;23.00;;;;;;;;;;5121394;27;20066;-63
2020/12/05 05:33:55;;;;;;;33.25;22.63;;;;;;;;;;5120592;27;20039;-63
2020/12/05 05:36:23;;;;;;;32.05;23.80;;;;;;;;;;5118898;27;20035;-63
2020/12/05 05:38:59;;;;;;;30.92;22.95;;;;;;;;;;5120620;27;20807;-63
2020/12/05 05:41:25;;;;;;;32.45;23.77;;;;;;;;;;5119798;27;20420;-62
2020/12/05 05:43:57;;;;;;;34.83;24.85;;;;;;;;;;5122242;27;20042;-63
2020/12/05 05:46:32;;;;;;;;;;;;;;;;;;5119562;27;20447;-63
2020/12/05 05:48:59;;;;;;;44.05;26.98;;;;;;;;;;5119941;27;19964;-63
2020/12/05 05:51:47;;;;;;;38.58;25.92;;;;;;;;;;5118739;27;20027;-62
2020/12/05 05:54:20;;;;;;;35.72;25.58;;;;;;;;;;5119275;27;20509;-63
2020/12/05 05:56:53;;;;;;;38.95;27.42;;;;;;;;;;5106477;27;20073;-63
2020/12/05 05:59:21;;;;;;;49.03;29.25;;;;;;;;;;5120052;27;20057;-63
2020/12/05 06:01:50;;;;;;;43.00;31.20;;;;;;;;;;5119574;27;20031;-61
2020/12/05 06:04:30;;;;;;;47.20;31.58;;;;;;;;;;5121502;27;20059;-62
2020/12/05 06:06:57;;;;;;;42.60;30.55;;;;;;;;;;5117285;27;20034;-62
2020/12/05 06:09:28;;;;;;;49.22;31.00;;;;;;;;;;5107336;27;20030;-63
2020/12/05 06:11:56;;;;;;;45.00;31.05;;;;;;;;;;5118465;27;20034;-62
2020/12/05 06:14:22;;;;;;;47.47;31.60;;;;;;;;;;5120699;27;20405;-62
2020/12/05 06:16:56;;;;;;;42.25;30.83;;;;;;;;;;5118238;27;20176;-62
2020/12/05 06:19:23;;;;;;;45.95;31.40;;;;;;;;;;5120473;27;20046;-62
2020/12/05 06:21:50;;;;;;;40.80;30.77;;;;;;;;;;5119587;27;20035;-62
2020/12/05 06:24:22;;;;;;;43.72;30.45;;;;;;;;;;5119613;27;20426;-62
2020/12/05 06:26:49;;;;;;;45.15;31.42;;;;;;;;;;5118953;27;20034;-63
2020/12/05 06:29:15;;;;;;;47.83;31.48;;;;;;;;;;5120893;27;20132;-61
2020/12/05 06:31:42;;;;;;;41.42;29.58;;;;;;;;;;5107090;27;20176;-62
2020/12/05 06:34:32;;;;;;;46.10;32.80;;;;;;;;;;5118688;27;20113;-62
2020/12/05 06:36:58;;;;;;;43.40;31.42;;;;;;;;;;5119818;27;20136;-62
2020/12/05 06:39:23;;;;;;;46.40;31.48;;;;;;;;;;5118622;27;20085;-62
2020/12/05 06:41:51;;;;;;;47.03;31.80;;;;;;;;;;5118900;27;20063;-63
2020/12/05 06:44:18;;;;;;;49.30;32.03;;;;;;;;;;5121978;27;20042;-62
2020/12/05 06:46:52;;;;;;;46.10;31.08;;;;;;;;;;5110471;27;20353;-62
2020/12/05 06:49:39;;;;;;;43.88;31.23;;;;;;;;;;5120652;27;20046;-62
2020/12/05 06:52:25;;;;;;;49.90;32.97;;;;;;;;;;5102924;27;20392;-62
2020/12/05 06:54:54;;;;;;;40.25;29.13;;;;;;;;;;5121637;27;20119;-62
2020/12/05 06:57:21;;;;;;;44.55;30.25;;;;;;;;;;5120552;27;20049;-63
2020/12/05 06:59:46;;;;;;;44.15;31.38;;;;;;;;;;5116288;27;20046;-62
2020/12/05 07:02:39;;;;;;;40.33;31.55;;;;;;;;;;5117798;27;20778;-62
2020/12/05 07:05:20;;;;;;;45.03;30.02;;;;;;;;;;5113328;27;20438;-62
2020/12/05 07:07:46;;;;;;;49.45;30.90;;;;;;;;;;5118552;27;20031;-62
2020/12/05 07:10:12;;;;;;;41.35;29.33;;;;;;;;;;5118903;27;20615;-63
2020/12/05 07:12:38;;;;;;;67.93;53.50;;;;;;;;;;5118529;27;20041;-62
2020/12/05 07:15:32;;;;;;;47.03;31.63;;;;;;;;;;5119846;27;20118;-62
2020/12/05 07:17:58;;;;;;;42.72;29.70;;;;;;;;;;5088825;28;20834;-62
2020/12/05 07:20:25;;;;;;;38.45;28.25;;;;;;;;;;5117717;28;20031;-63
2020/12/05 07:22:54;;;;;;;44.53;28.13;;;;;;;;;;5108037;28;20040;-62
2020/12/05 07:25:21;;;;;;;43.38;29.77;;;;;;;;;;5116442;28;20455;-62
2020/12/05 07:27:47;;;;;;;39.47;29.30;;;;;;;;;;5123709;28;20435;-62
2020/12/05 07:30:13;;;;;;;42.33;29.45;;;;;;;;;;5120166;28;20027;-62
2020/12/05 07:32:41;;;;;;;40.03;28.67;;;;;;;;;;5121773;28;20032;-62
2020/12/05 07:35:13;;;;;;;39.88;30.23;;;;;;;;;;5117654;28;20059;-63
2020/12/05 07:37:39;;;;;;;45.92;28.77;;;;;;;;;;5120990;28;20411;-62
2020/12/05 07:40:08;;;;;;;42.47;30.50;;;;;;;;;;5117520;28;20035;-62
2020/12/05 07:42:38;;;;;;;43.90;28.88;;;;;;;;;;5118731;28;20035;-62
2020/12/05 07:45:12;;;;;;;47.55;29.65;;;;;;;;;;5119219;28;20035;-63
2020/12/05 07:47:38;;;;;;;43.67;29.40;;;;;;;;;;5119976;28;20384;-63
2020/12/05 07:50:09;;;;;;;46.45;30.27;;;;;;;;;;5118632;28;20475;-62
2020/12/05 07:52:36;;;;;;;43.60;29.37;;;;;;;;;;5119483;28;20039;-62
2020/12/05 07:55:04;;;;;;;55.15;31.38;;;;;;;;;;5119158;28;20038;-63
2020/12/05 07:57:31;;;;;;;49.25;32.10;;;;;;;;;;5120592;28;20040;-62
2020/12/05 08:00:03;;;;;;;49.55;32.47;;;;;;;;;;5120480;27;20699;-63
2020/12/05 08:02:34;;;;;;;42.53;32.58;;;;;;;;;;5122306;27;20027;-62
2020/12/05 08:05:26;;;;;;;42.38;31.33;;;;;;;;;;5122738;27;20067;-63
2020/12/05 08:08:02;;;;;;;45.95;32.08;;;;;;;;;;5121318;27;20039;-62
2020/12/05 08:10:29;;;;;;;44.10;31.45;;;;;;;;;;5122115;27;20039;-62
2020/12/05 08:13:20;;;;;;;45.15;31.40;;;;;;;;;;5123449;27;20032;-62
2020/12/05 08:16:07;;;;;;;48.57;30.83;;;;;;;;;;5119717;27;20043;-62
2020/12/05 08:18:37;;;;;;;35.20;26.80;;;;;;;;;;5121126;27;20260;-62
2020/12/05 08:21:04;;;;;;;45.42;29.38;;;;;;;;;;5124717;27;20402;-62
2020/12/05 08:23:37;;;;;;;36.92;27.80;;;;;;;;;;5120747;27;20083;-62
2020/12/05 08:26:07;;;;;;;37.83;29.27;;;;;;;;;;5122712;27;20035;-61
2020/12/05 08:28:38;;;;;;;38.70;26.63;;;;;;;;;;5121673;27;20030;-61
2020/12/05 08:31:06;;;;;;;38.20;26.55;;;;;;;;;;5090789;27;20035;-62
2020/12/05 08:33:49;;;;;;;42.78;29.23;;;;;;;;;;5121187;27;20027;-62
2020/12/05 08:36:19;;;;;;;35.92;27.40;;;;;;;;;;5118221;27;20043;-62
2020/12/05 08:38:46;;;;;;;36.60;27.52;;;;;;;;;;5119739;27;20077;-63
2020/12/05 08:41:11;;;;;;;47.70;29.83;;;;;;;;;;5119449;27;20038;-62
2020/12/05 08:43:37;;;;;;;37.47;28.60;;;;;;;;;;5122284;27;20032;-62
2020/12/05 08:46:18;;;;;;;34.20;27.17;;;;;;;;;;5121517;27;20035;-62
2020/12/05 08:48:44;;;;;;;38.70;28.27;;;;;;;;;;5119635;27;20134;-62
2020/12/05 08:51:09;;;;;;;42.30;26.58;;;;;;;;;;5120547;27;20146;-62
2020/12/05 08:53:35;;;;;;;35.10;26.08;;;;;;;;;;5120369;27;20064;-62
2020/12/05 08:56:00;;;;;;;39.53;28.52;;;;;;;;;;5123593;27;20130;-63
2020/12/05 08:58:41;;;;;;;34.28;27.20;;;;;;;;;;5120908;27;20428;-63
2020/12/05 09:01:06;;;;;;;27.10;24.13;;;;;;;;;;5120146;27;20031;-63
2020/12/05 09:03:36;;;;;;;36.22;27.30;;;;;;;;;;5121154;27;20260;-63
2020/12/05 09:06:02;;;;;;;31.15;25.02;;;;;;;;;;5118752;27;20065;-62
2020/12/05 09:08:27;;;;;;;31.42;25.00;;;;;;;;;;5120750;27;20579;-62
2020/12/05 09:10:52;;;;;;;29.85;24.48;;;;;;;;;;5119841;27;20073;-63
2020/12/05 09:13:18;;;;;;;30.75;23.25;;;;;;;;;;5122412;27;20087;-63
2020/12/05 09:16:00;;;;;;;28.35;22.63;;;;;;;;;;5119198;27;20045;-62
2020/12/05 09:18:26;;;;;;;31.67;22.45;;;;;;;;;;5121835;27;20031;-63
2020/12/05 09:20:51;;;;;;;26.15;21.00;;;;;;;;;;5119802;27;20441;-62
2020/12/05 09:23:27;;;;;;;27.15;21.63;;;;;;;;;;5120617;27;20027;-63
2020/12/05 09:26:00;;;;;;;24.90;20.75;;;;;;;;;;5119610;27;20035;-63
2020/12/05 09:28:25;;;;;;;24.10;20.00;;;;;;;;;;5119152;27;20528;-63
2020/12/05 09:30:50;;;;;;;25.42;20.02;;;;;;;;;;5121173;27;20115;-63
2020/12/05 09:33:17;;;;;;;21.42;18.73;;;;;;;;;;5120571;27;20031;-63
2020/12/05 09:35:43;;;;;;;22.13;18.90;;;;;;;;;;5119550;27;20031;-63
2020/12/05 09:38:09;;;;;;;21.55;18.85;;;;;;;;;;5120420;27;20043;-57
2020/12/05 09:40:34;;;;;;;22.00;18.58;;;;;;;;;;5119655;27;20024;-58
2020/12/05 09:43:00;;;;;;;22.50;18.55;;;;;;;;;;5104411;27;20080;-58
2020/12/05 09:45:27;;;;;;;20.05;17.70;;;;;;;;;;5119340;27;20055;-58
2020/12/05 09:47:53;;;;;;;24.23;19.73;;;;;;;;;;5118493;27;20039;-58
2020/12/05 09:50:18;;;;;;;27.15;21.52;;;;;;;;;;5118406;27;20024;-58
2020/12/05 09:52:44;;;;;;;22.52;18.25;;;;;;;;;;5121034;27;20109;-58
2020/12/05 09:55:10;;;;;;;20.38;17.77;;;;;;;;;;5119988;27;20037;-58
2020/12/05 09:57:36;;;;;;;20.40;16.52;;;;;;;;;;5118320;27;20037;-58
2020/12/05 10:00:06;;;;;;;33.53;16.20;;;;;;;;;;5119441;27;20028;-59
2020/12/05 10:02:31;;;;;;;21.60;16.83;;;;;;;;;;5095554;27;20035;-58
2020/12/05 10:04:56;;;;;;;18.40;15.65;;;;;;;;;;5117032;27;20031;-58
2020/12/05 10:07:22;;;;;;;19.15;16.00;;;;;;;;;;5113143;27;20359;-58
2020/12/05 10:09:47;;;;;;;20.02;14.45;;;;;;;;;;5118505;27;20452;-58
2020/12/05 10:12:14;;;;;;;15.23;12.80;;;;;;;;;;5112433;27;20032;-59
2020/12/05 10:14:39;;;;;;;16.17;12.98;;;;;;;;;;5115528;27;20039;-58
2020/12/05 10:17:04;;;;;;;15.68;12.98;;;;;;;;;;5120153;27;20039;-58
2020/12/05 10:19:30;;;;;;;15.38;12.40;;;;;;;;;;5104300;27;20081;-58
2020/12/05 10:21:55;;;;;;;15.13;12.70;;;;;;;;;;5115444;27;20449;-58
2020/12/05 10:24:20;;;;;;;17.40;12.02;;;;;;;;;;5118892;27;20397;-59
2020/12/05 10:26:50;;;;;;;15.32;12.73;;;;;;;;;;5118649;27;20539;-59
2020/12/05 10:29:16;;;;;;;14.18;12.52;;;;;;;;;;5120096;27;20528;-58
2020/12/05 10:31:45;;;;;;;18.65;12.80;;;;;;;;;;5085309;28;20046;-58
2020/12/05 10:34:12;;;;;;;13.05;11.65;;;;;;;;;;5121639;27;20045;-59
2020/12/05 10:36:37;;;;;;;16.33;12.63;;;;;;;;;;5118075;27;20114;-59
2020/12/05 10:39:04;;;;;;;14.43;12.15;;;;;;;;;;5121359;27;20528;-59
2020/12/05 10:41:29;;;;;;;12.35;10.10;;;;;;;;;;5119281;27;20035;-58
2020/12/05 10:43:55;;;;;;;16.48;10.90;;;;;;;;;;5107979;27;20054;-57
2020/12/05 10:46:20;;;;;;;12.80;10.70;;;;;;;;;;5118344;27;20051;-58
2020/12/05 10:48:45;;;;;;;16.58;10.18;;;;;;;;;;5117278;27;20031;-58
2020/12/05 10:51:11;;;;;;;10.65;9.10;;;;;;;;;;5118405;27;20460;-59
2020/12/05 10:53:36;;;;;;;11.65;9.32;;;;;;;;;;5118485;27;20460;-58
2020/12/05 10:56:01;;;;;;;12.13;8.48;;;;;;;;;;5109731;27;20461;-58
2020/12/05 10:58:27;;;;;;;11.63;7.65;;;;;;;;;;5118224;27;20364;-58
2020/12/05 11:00:52;;;;;;;9.00;7.53;;;;;;;;;;5101435;28;20023;-58
2020/12/05 11:03:17;;;;;;;9.15;7.43;;;;;;;;;;5111535;27;20031;-58
2020/12/05 11:05:43;;;;;;;10.55;7.18;;;;;;;;;;5115281;27;20035;-58
2020/12/05 11:08:08;;;;;;;10.48;7.38;;;;;;;;;;5120898;28;20031;-58
2020/12/05 11:10:33;;;;;;;8.57;6.72;;;;;;;;;;5117091;27;20040;-58
2020/12/05 11:12:59;;;;;;;8.52;6.75;;;;;;;;;;5120082;27;20028;-58
2020/12/05 11:15:24;;;;;;;7.32;6.50;;;;;;;;;;5116741;27;20389;-59
2020/12/05 11:17:50;;;;;;;7.35;6.13;;;;;;;;;;5120973;27;20031;-58
2020/12/05 11:20:16;;;;;;;10.10;6.55;;;;;;;;;;5102523;28;20148;-58
2020/12/05 11:22:41;;;;;;;8.38;6.78;;;;;;;;;;5115370;28;20093;-58
2020/12/05 11:25:07;;;;;;;12.85;7.68;;;;;;;;;;5117252;28;20508;-59
2020/12/05 11:27:32;;;;;;;10.15;6.68;;;;;;;;;;5115487;28;20027;-59
2020/12/05 11:29:57;;;;;;;10.70;6.97;;;;;;;;;;5118969;28;20047;-58
2020/12/05 11:32:23;;;;;;;11.70;7.05;;;;;;;;;;5115223;28;20055;-59
2020/12/05 11:34:48;;;;;;;8.77;6.72;;;;;;;;;;5122993;27;20054;-60
2020/12/05 11:37:13;;;;;;;8.13;6.03;;;;;;;;;;5124702;27;20423;-59
2020/12/05 11:39:39;;;;;;;8.50;5.57;;;;;;;;;;5119978;27;20413;-64
2020/12/05 11:42:04;;;;;;;8.70;6.30;;;;;;;;;;5120296;27;20437;-64
2020/12/05 11:44:29;;;;;;;8.13;5.93;;;;;;;;;;5126138;27;20050;-64
2020/12/05 11:46:55;;;;;;;8.27;6.05;;;;;;;;;;5125180;27;20081;-64
2020/12/05 11:49:20;;;;;;;6.95;5.53;;;;;;;;;;5124267;27;20069;-64
2020/12/05 11:51:45;;;;;;;7.25;5.40;;;;;;;;;;5120354;27;20039;-64
2020/12/05 11:54:11;;;;;;;8.75;5.05;;;;;;;;;;5122599;27;20050;-64
2020/12/05 11:56:38;;;;;;;9.00;5.53;;;;;;;;;;5120391;27;20356;-65
2020/12/05 11:59:03;;;;;;;5.93;3.90;;;;;;;;;;5122338;27;20475;-64
2020/12/05 12:01:29;;;;;;;6.25;4.20;;;;;;;;;;5121177;27;20039;-65
2020/12/05 12:03:54;;;;;;;5.95;3.88;;;;;;;;;;5121430;27;20043;-64
2020/12/05 12:06:19;;;;;;;6.50;3.63;;;;;;;;;;5121272;27;20093;-64
2020/12/05 12:08:46;;;;;;;6.43;3.70;;;;;;;;;;5121791;27;20046;-64
2020/12/05 12:11:20;;;;;;;4.88;3.55;;;;;;;;;;5102784;27;20028;-64
2020/12/05 12:13:45;;;;;;;5.25;3.22;;;;;;;;;;5122612;27;20032;-64
2020/12/05 12:16:15;;;;;;;5.65;3.45;;;;;;;;;;5118231;27;20101;-64
2020/12/05 12:18:40;;;;;;;5.28;2.95;;;;;;;;;;5122298;27;20495;-64
2020/12/05 12:21:06;;;;;;;4.60;3.35;;;;;;;;;;5117858;27;20039;-64
2020/12/05 12:23:31;;;;;;;5.10;2.70;;;;;;;;;;5121732;27;20030;-62
2020/12/05 12:25:58;;;;;;;5.15;3.28;;;;;;;;;;5123980;27;20027;-62
2020/12/05 12:28:23;;;;;;;4.65;3.10;;;;;;;;;;5123013;27;20061;-63
2020/12/05 12:30:48;;;;;;;4.10;2.97;;;;;;;;;;5121865;27;20047;-62
2020/12/05 12:33:14;;;;;;;4.53;3.08;;;;;;;;;;5117267;27;20027;-62
2020/12/05 12:35:39;;;;;;;5.57;3.10;;;;;;;;;;5118838;27;20092;-63
2020/12/05 12:38:04;;;;;;;4.13;3.00;;;;;;;;;;5120092;27;20033;-64
2020/12/05 12:40:30;;;;;;;4.63;2.88;;;;;;;;;;5118140;27;20543;-64
2020/12/05 12:42:57;;;;;;;5.38;3.08;;;;;;;;;;5101169;27;20526;-64
2020/12/05 12:45:28;;;;;;;4.70;2.78;;;;;;;;;;5122812;27;20090;-63
2020/12/05 12:48:37;;;;;;;4.22;2.67;;;;;;;;;;5117187;27;20040;-64
2020/12/05 12:50:45;;;;;;;5.85;3.20;;;;;;;;;;5121361;27;20127;-64
2020/12/05 12:53:11;;;;;;;4.57;2.83;;;;;;;;;;5123344;27;20129;-63
2020/12/05 12:55:37;;;;;;;13.25;3.33;;;;;;;;;;5122501;27;20033;-64
2020/12/05 12:58:13;;;;;;;7.03;4.20;;;;;;;;;;5124079;27;20046;-64
2020/12/05 13:00:40;;;;;;;5.82;4.07;;;;;;;;;;5121220;27;20040;-64
2020/12/05 13:03:05;;;;;;;5.88;3.65;;;;;;;;;;5120238;27;20027;-64
2020/12/05 13:05:31;;;;;;;6.35;4.03;;;;;;;;;;5116753;27;20042;-64
2020/12/05 13:07:56;;;;;;;5.10;3.08;;;;;;;;;;5123980;27;20562;-64
2020/12/05 13:10:21;;;;;;;4.78;3.03;;;;;;;;;;5121602;27;20444;-65
2020/12/05 13:12:47;;;;;;;5.25;3.45;;;;;;;;;;5117138;27;20098;-65
2020/12/05 13:15:12;;;;;;;5.47;3.10;;;;;;;;;;5118879;27;20024;-65
2020/12/05 13:17:37;;;;;;;7.82;3.63;;;;;;;;;;5119027;27;20027;-65
2020/12/05 13:20:03;;;;;;;5.68;3.47;;;;;;;;;;5107874;27;20089;-65
2020/12/05 13:22:28;;;;;;;5.10;3.28;;;;;;;;;;5115526;27;20046;-65
2020/12/05 13:24:53;;;;;;;5.60;3.33;;;;;;;;;;5118862;27;20027;-65
2020/12/05 13:27:19;;;;;;;4.88;3.08;;;;;;;;;;5118050;27;20110;-65
2020/12/05 13:29:45;;;;;;;4.07;2.80;;;;;;;;;;5119476;27;20039;-64
2020/12/05 13:32:10;;;;;;;5.10;3.38;;;;;;;;;;5120349;27;20039;-65
2020/12/05 13:34:35;;;;;;;5.05;3.15;;;;;;;;;;5103284;27;20039;-65
2020/12/05 13:37:01;;;;;;;17.17;3.55;;;;;;;;;;5119348;27;20027;-65
2020/12/05 13:39:26;;;;;;;5.22;3.30;;;;;;;;;;5120509;27;20503;-64
2020/12/05 13:41:55;;;;;;;5.00;3.22;;;;;;;;;;5120411;27;20432;-66
2020/12/05 13:44:20;;;;;;;4.97;3.13;;;;;;;;;;5121224;27;20131;-65
2020/12/05 13:46:45;;;;;;;5.45;3.45;;;;;;;;;;5116362;27;20031;-66
2020/12/05 13:49:11;;;;;;;22.00;13.93;;;;;;;;;;5120355;27;20031;-64
2020/12/05 13:51:37;;;;;;;107.55;59.25;;;;;;;;;;5119272;27;20108;-65
2020/12/05 13:54:02;;;;;;;57.38;31.25;;;;;;;;;;5119574;27;20042;-64
2020/12/05 13:56:31;;;;;;;78.57;35.17;;;;;;;;;;5104086;27;20039;-66
2020/12/05 13:58:58;;;;;;;381.73;181.77;;;;;;;;;;5120056;27;20036;-64
2020/12/05 14:01:23;;;;;;;129.85;67.15;;;;;;;;;;5121552;27;20031;-64
2020/12/05 14:03:49;;;;;;;313.67;154.25;;;;;;;;;;5120432;27;20092;-64
2020/12/05 14:06:14;;;;;;;148.38;91.10;;;;;;;;;;5118279;27;20131;-63
2020/12/05 14:08:40;;;;;;;53.78;35.38;;;;;;;;;;5118711;27;20062;-63
2020/12/05 14:11:05;;;;;;;43.85;29.05;;;;;;;;;;5121005;27;20110;-63
2020/12/05 14:13:32;;;;;;;23.27;16.48;;;;;;;;;;5119276;27;20525;-63
2020/12/05 14:15:57;;;;;;;13.40;9.70;;;;;;;;;;5104343;27;20042;-63
2020/12/05 14:18:23;;;;;;;14.82;12.88;;;;;;;;;;5120516;27;20032;-65
2020/12/05 14:20:48;;;;;;;8.38;5.43;;;;;;;;;;5118143;27;20672;-64
2020/12/05 14:23:13;;;;;;;10.63;7.03;;;;;;;;;;5122463;27;20095;-63
2020/12/05 14:25:40;;;;;;;6.63;5.68;;;;;;;;;;5115638;27;20457;-63